createdAt,value
2023-01-13T00:00:27.858Z,93780.81
2023-01-13T00:02:55.796Z,93788.75
2023-01-13T00:05:23.896Z,93788.06
2023-01-13T00:07:51.903Z,93786.28
2023-01-13T00:10:20.056Z,93785.06
2023-01-13T00:12:48.020Z,93789.94
2023-01-13T00:15:16.028Z,93781.59
2023-01-13T00:17:43.845Z,93761.09
2023-01-13T00:20:13.046Z,93778.59
2023-01-13T00:22:41.209Z,93793.75
2023-01-13T00:25:09.464Z,93785.25
2023-01-13T00:27:37.354Z,93792.34
2023-01-13T00:30:06.362Z,93792.38
2023-01-13T00:32:34.323Z,93782.25
2023-01-13T00:35:02.340Z,93789.13
2023-01-13T00:37:30.268Z,93793.84
2023-01-13T00:39:58.149Z,93782.31
2023-01-13T00:42:44.634Z,93784.78
2023-01-13T00:45:12.536Z,93794.94
2023-01-13T00:47:40.411Z,93794.13
2023-01-13T00:50:09.071Z,93790.66
2023-01-13T00:52:37.062Z,93790.66
2023-01-13T00:55:05.271Z,93787.59
2023-01-13T00:57:33.076Z,93791.06
2023-01-13T01:00:01.070Z,93793.47
2023-01-13T01:02:28.965Z,93788.03
2023-01-13T01:04:57.171Z,93785.78
2023-01-13T01:07:25.003Z,93780.09
2023-01-13T01:09:53.960Z,93779.47
2023-01-13T01:12:21.749Z,93781.84
2023-01-13T01:14:49.568Z,93775.75
2023-01-13T01:17:20.307Z,93775.78
2023-01-13T01:19:48.233Z,93768.69
2023-01-13T01:22:16.005Z,93767.53
2023-01-13T01:24:43.858Z,93771.56
2023-01-13T01:27:11.748Z,93772.38
2023-01-13T01:29:39.596Z,93761.81
2023-01-13T01:32:07.565Z,93764.66
2023-01-13T01:34:35.947Z,93766.50
2023-01-13T01:37:03.903Z,93772.00
2023-01-13T01:39:31.921Z,93759.84
2023-01-13T01:42:18.235Z,93764.91
2023-01-13T01:45:22.726Z,93755.56
2023-01-13T01:56:10.281Z,93757.75
2023-01-13T02:49:43.692Z,93762.81
2023-01-13T03:35:12.371Z,93766.31
2023-01-13T03:49:22.477Z,93760.84
2023-01-13T03:55:12.185Z,93767.97
2023-01-13T04:09:56.049Z,93775.09
2023-01-13T04:12:50.484Z,93771.66
2023-01-13T04:48:01.555Z,93781.19
2023-01-13T04:50:29.996Z,93784.84
2023-01-13T04:53:02.853Z,93777.72
2023-01-13T04:58:14.835Z,93782.63
2023-01-13T05:36:55.167Z,93795.78
2023-01-13T05:39:27.728Z,93795.16
2023-01-13T05:42:13.943Z,93801.47
2023-01-13T05:47:32.498Z,93802.41
2023-01-13T05:50:00.568Z,93808.06
2023-01-13T05:52:29.344Z,93800.81
2023-01-13T05:54:57.810Z,93805.69
2023-01-13T05:57:25.539Z,93810.97
2023-01-13T05:59:53.434Z,93808.94
2023-01-13T06:02:21.461Z,93808.56
2023-01-13T06:04:49.478Z,93805.94
2023-01-13T06:12:40.843Z,93818.50
2023-01-13T06:15:09.288Z,93806.53
2023-01-13T06:17:37.253Z,93819.34
2023-01-13T06:20:06.428Z,93815.47
2023-01-13T06:22:40.376Z,93819.53
2023-01-13T06:25:16.494Z,93817.50
2023-01-13T06:27:47.023Z,93817.31
2023-01-13T06:30:19.910Z,93816.09
2023-01-13T06:32:53.769Z,93811.41
2023-01-13T06:35:29.567Z,93814.69
2023-01-13T06:38:08.990Z,93808.78
2023-01-13T06:40:37.225Z,93813.84
2023-01-13T06:43:17.409Z,93813.44
2023-01-13T06:48:38.195Z,93818.31
2023-01-13T06:51:06.236Z,93814.03
2023-01-13T06:53:34.035Z,93819.75
2023-01-13T06:56:11.550Z,93816.47
2023-01-13T06:58:39.860Z,93814.88
2023-01-13T07:01:08.109Z,93818.91
2023-01-13T07:03:36.561Z,93828.22
2023-01-13T07:06:06.385Z,93826.81
2023-01-13T07:08:36.554Z,93824.97
2023-01-13T07:11:04.893Z,93827.81
2023-01-13T07:13:56.126Z,93817.28
2023-01-13T07:16:28.412Z,93824.38
2023-01-13T07:18:56.759Z,93827.81
2023-01-13T07:21:25.003Z,93816.59
2023-01-13T07:23:52.862Z,93826.75
2023-01-13T07:26:20.960Z,93813.13
2023-01-13T07:28:49.035Z,93826.75
2023-01-13T07:31:21.092Z,93824.88
2023-01-13T07:33:49.059Z,93831.78
2023-01-13T07:36:16.958Z,93821.56
2023-01-13T07:38:44.916Z,93832.31
2023-01-13T07:41:32.926Z,93827.41
2023-01-13T07:44:05.167Z,93824.97
2023-01-13T07:46:34.060Z,93821.84
2023-01-13T07:49:02.207Z,93817.50
2023-01-13T07:51:30.528Z,93820.69
2023-01-13T07:53:58.625Z,93825.69
2023-01-13T07:56:26.623Z,93826.63
2023-01-13T07:58:59.101Z,93830.75
2023-01-13T08:01:32.206Z,93824.84
2023-01-13T08:04:00.432Z,93812.34
2023-01-13T08:06:28.710Z,93822.63
2023-01-13T08:08:56.705Z,93819.50
2023-01-13T08:11:24.609Z,93830.41
2023-01-13T08:13:56.750Z,93830.13
2023-01-13T08:16:49.982Z,93830.06
2023-01-13T08:19:17.991Z,93825.34
2023-01-13T08:21:51.245Z,93828.94
2023-01-13T08:24:19.253Z,93825.88
2023-01-13T08:26:49.661Z,93829.16
2023-01-13T08:29:17.767Z,93830.47
2023-01-13T08:31:45.973Z,93829.97
2023-01-13T08:34:13.937Z,93823.31
2023-01-13T08:36:42.082Z,93832.69
2023-01-13T08:39:10.179Z,93827.00
2023-01-13T08:41:56.218Z,93821.22
2023-01-13T08:44:28.978Z,93833.88
2023-01-13T08:46:57.579Z,93826.97
2023-01-13T08:49:26.231Z,93822.94
2023-01-13T08:51:54.611Z,93818.78
2023-01-13T08:54:22.686Z,93821.91
2023-01-13T08:56:50.640Z,93800.13
2023-01-13T08:59:20.349Z,93810.94
2023-01-13T09:01:48.647Z,93808.41
2023-01-13T09:04:20.294Z,93808.16
2023-01-13T09:06:48.557Z,93802.91
2023-01-13T09:09:16.731Z,93803.09
2023-01-13T09:12:06.296Z,93803.59
2023-01-13T09:14:39.443Z,93809.50
2023-01-13T09:17:08.255Z,93801.00
2023-01-13T09:19:36.743Z,93793.22
2023-01-13T09:22:05.218Z,93792.13
2023-01-13T09:24:33.267Z,93799.47
2023-01-13T09:27:02.106Z,93798.22
2023-01-13T09:29:30.037Z,93791.50
2023-01-13T09:31:58.566Z,93792.25
2023-01-13T09:34:44.872Z,93790.19
2023-01-13T09:37:13.100Z,93794.31
2023-01-13T09:39:41.164Z,93795.38
2023-01-13T09:42:46.621Z,93793.31
2023-01-13T09:45:21.168Z,93800.53
2023-01-13T09:48:12.641Z,93793.19
2023-01-13T09:51:28.372Z,93801.88
2023-01-13T09:54:28.749Z,93808.69
2023-01-13T09:56:57.845Z,93795.84
2023-01-13T09:59:36.612Z,93806.66
2023-01-13T10:02:26.791Z,93802.81
2023-01-13T10:05:28.207Z,93803.19
2023-01-13T10:08:03.053Z,93798.72
2023-01-13T10:10:53.941Z,93797.25
2023-01-13T10:13:23.697Z,93797.56
2023-01-13T10:16:03.498Z,93793.44
2023-01-13T10:18:34.405Z,93787.63
2023-01-13T10:21:25.467Z,93789.59
2023-01-13T10:24:07.768Z,93784.09
2023-01-13T10:27:00.485Z,93776.94
2023-01-13T10:29:30.673Z,93777.31
2023-01-13T10:32:00.493Z,93785.34
2023-01-13T10:34:29.276Z,93785.69
2023-01-13T10:37:06.799Z,93780.13
2023-01-13T10:39:46.107Z,93786.28
2023-01-13T10:42:17.516Z,93786.28
2023-01-13T10:44:51.584Z,93790.25
2023-01-13T10:47:21.378Z,93793.13
2023-01-13T10:50:06.394Z,93783.63
2023-01-13T10:52:39.709Z,93780.66
2023-01-13T10:55:33.705Z,93777.59
2023-01-13T10:58:18.757Z,93772.56
2023-01-13T11:00:49.328Z,93768.06
2023-01-13T11:03:24.924Z,93768.66
2023-01-13T11:06:00.696Z,93782.13
2023-01-13T11:08:44.162Z,93782.22
2023-01-13T11:11:33.509Z,93767.13
2023-01-13T11:14:41.777Z,93765.75
2023-01-13T11:17:27.939Z,93764.78
2023-01-13T11:20:19.829Z,93752.50
2023-01-13T11:22:51.800Z,93749.34
2023-01-13T11:25:42.422Z,93748.09
2023-01-13T11:28:21.167Z,93747.66
2023-01-13T11:31:11.137Z,93742.56
2023-01-13T11:33:45.466Z,93741.19
2023-01-13T11:36:29.470Z,93741.53
2023-01-13T11:39:09.472Z,93741.53
2023-01-13T11:41:37.584Z,93749.78
2023-01-13T11:44:19.443Z,93746.63
2023-01-13T11:46:54.979Z,93747.28
2023-01-13T11:49:28.041Z,93745.44
2023-01-13T11:52:00.474Z,93746.69
2023-01-13T11:54:31.267Z,93750.53
2023-01-13T11:57:30.110Z,93729.09
2023-01-13T12:00:24.306Z,93739.78
2023-01-13T12:03:07.459Z,93743.16
2023-01-13T12:05:42.648Z,93746.63
2023-01-13T12:08:46.235Z,93740.94
2023-01-13T12:11:55.779Z,93747.69
2023-01-13T12:14:33.251Z,93740.06
2023-01-13T12:17:02.969Z,93731.47
2023-01-13T12:19:32.601Z,93735.91
2023-01-13T12:22:37.200Z,93739.94
2023-01-13T12:25:34.057Z,93730.06
2023-01-13T12:28:14.432Z,93740.44
2023-01-13T12:30:48.663Z,93738.09
2023-01-13T12:33:49.387Z,93745.59
2023-01-13T12:36:48.578Z,93738.09
2023-01-13T12:39:48.497Z,93740.97
2023-01-13T12:42:52.851Z,93742.44
2023-01-13T12:45:24.930Z,93752.00
2023-01-13T12:47:53.699Z,93747.28
2023-01-13T12:50:24.949Z,93750.91
2023-01-13T12:52:55.215Z,93744.63
2023-01-13T12:55:25.564Z,93756.31
2023-01-13T12:58:08.461Z,93751.28
2023-01-13T13:00:42.465Z,93754.50
2023-01-13T13:03:18.538Z,93749.63
2023-01-13T13:06:12.149Z,93752.19
2023-01-13T13:09:04.396Z,93755.75
2023-01-13T13:12:01.166Z,93761.03
2023-01-13T13:14:38.199Z,93770.56
2023-01-13T13:17:32.011Z,93762.25
2023-01-13T13:20:01.727Z,93768.81
2023-01-13T13:22:43.299Z,93755.47
2023-01-13T13:25:21.844Z,93766.91
2023-01-13T13:28:08.244Z,93764.44
2023-01-13T13:30:39.516Z,93767.75
2023-01-13T13:33:39.302Z,93771.06
2023-01-13T13:36:20.017Z,93764.78
2023-01-13T13:39:24.625Z,93748.31
2023-01-13T13:42:21.661Z,93757.22
2023-01-13T13:45:10.146Z,93764.38
2023-01-13T13:47:39.492Z,93760.28
2023-01-13T13:50:20.722Z,93760.38
2023-01-13T13:53:02.652Z,93762.69
2023-01-13T13:55:30.947Z,93755.06
2023-01-13T13:58:01.797Z,93762.69
2023-01-13T14:00:34.960Z,93768.19
2023-01-13T14:03:22.280Z,93760.06
2023-01-13T14:06:02.899Z,93768.34
2023-01-13T14:08:39.808Z,93770.53
2023-01-13T14:11:27.979Z,93773.19
2023-01-13T14:14:07.496Z,93771.84
2023-01-13T14:16:38.315Z,93774.75
2023-01-13T14:19:07.490Z,93775.34
2023-01-13T14:21:35.569Z,93774.28
2023-01-13T14:24:14.627Z,93772.97
2023-01-13T14:26:42.959Z,93776.44
2023-01-13T14:29:18.951Z,93772.97
2023-01-13T14:31:49.156Z,93775.16
2023-01-13T14:34:30.973Z,93773.91
2023-01-13T14:37:03.404Z,93774.22
2023-01-13T14:39:40.718Z,93776.50
2023-01-13T14:42:14.638Z,93768.16
2023-01-13T14:44:48.005Z,93774.13
2023-01-13T14:47:28.962Z,93780.75
2023-01-13T14:50:28.545Z,93774.88
2023-01-13T14:52:57.680Z,93780.16
2023-01-13T14:55:41.297Z,93790.59
2023-01-13T14:58:25.720Z,93790.38
2023-01-13T15:01:30.677Z,93785.47
2023-01-13T15:04:25.214Z,93787.34
2023-01-13T15:06:56.875Z,93793.88
2023-01-13T15:09:28.220Z,93791.25
2023-01-13T15:11:59.058Z,93757.69
2023-01-13T15:14:35.104Z,93788.59
2023-01-13T15:17:03.672Z,93796.34
2023-01-13T15:19:32.032Z,93796.13
2023-01-13T15:22:00.527Z,93801.03
2023-01-13T15:24:29.083Z,93797.72
2023-01-13T15:26:57.527Z,93805.66
2023-01-13T15:29:26.260Z,93803.88
2023-01-13T15:31:54.845Z,93806.78
2023-01-13T15:34:23.309Z,93797.19
2023-01-13T15:36:51.708Z,93797.91
2023-01-13T15:39:20.645Z,93800.31
2023-01-13T15:42:07.655Z,93806.06
2023-01-13T15:44:54.893Z,93806.00
2023-01-13T15:47:25.478Z,93802.16
2023-01-13T15:49:55.105Z,93803.22
2023-01-13T15:52:26.232Z,93807.13
2023-01-13T15:55:05.920Z,93808.78
2023-01-13T15:57:38.775Z,93807.09
2023-01-13T16:00:30.569Z,93812.22
2023-01-13T16:03:00.222Z,93806.13
2023-01-13T16:05:35.377Z,93802.06
2023-01-13T16:08:03.851Z,93803.69
2023-01-13T16:10:33.435Z,93802.66
2023-01-13T16:13:02.020Z,93809.63
2023-01-13T16:15:30.469Z,93808.44
2023-01-13T16:18:01.493Z,93813.13
2023-01-13T16:20:42.192Z,93811.28
2023-01-13T16:23:11.753Z,93815.56
2023-01-13T16:25:43.406Z,93814.78
2023-01-13T16:28:24.383Z,93808.16
2023-01-13T16:31:05.335Z,93802.88
2023-01-13T16:33:33.823Z,93813.38
2023-01-13T16:36:10.493Z,93811.41
2023-01-13T16:38:41.712Z,93811.22
2023-01-13T16:41:10.569Z,93808.38
2023-01-13T16:43:39.430Z,93809.16
2023-01-13T16:46:29.616Z,93806.31
2023-01-13T16:49:03.374Z,93809.72
2023-01-13T16:51:32.383Z,93809.88
2023-01-13T16:54:00.438Z,93808.06
2023-01-13T16:56:32.433Z,93811.66
2023-01-13T16:59:08.663Z,93805.03
2023-01-13T17:01:39.822Z,93806.03
2023-01-13T17:04:18.435Z,93798.56
2023-01-13T17:07:07.446Z,93809.88
2023-01-13T17:09:35.772Z,93814.69
2023-01-13T17:12:05.027Z,93808.41
2023-01-13T17:14:34.014Z,93798.66
2023-01-13T17:17:02.335Z,93810.88
2023-01-13T17:19:30.946Z,93799.94
2023-01-13T17:21:59.262Z,93802.59
2023-01-13T17:29:56.217Z,93804.03
2023-01-13T17:32:25.180Z,93804.03
2023-01-13T17:34:55.016Z,93807.06
2023-01-13T17:37:34.376Z,93809.06
2023-01-13T17:40:03.024Z,93812.31
2023-01-13T17:42:31.707Z,93811.28
2023-01-13T17:45:00.127Z,93806.41
2023-01-13T17:47:28.675Z,93810.47
2023-01-13T17:49:57.061Z,93803.72
2023-01-13T17:52:25.374Z,93809.28
2023-01-13T17:54:53.849Z,93810.47
2023-01-13T17:57:22.334Z,93804.22
2023-01-13T17:59:50.655Z,93810.50
2023-01-13T18:02:19.642Z,93805.44
2023-01-13T18:04:48.091Z,93798.09
2023-01-13T18:07:16.348Z,93804.41
2023-01-13T18:09:50.071Z,93804.03
2023-01-13T18:12:19.074Z,93808.66
2023-01-13T18:17:29.858Z,93816.56
2023-01-13T18:20:26.042Z,93813.13
2023-01-13T18:23:13.398Z,93825.78
2023-01-13T18:26:00.132Z,93824.53
2023-01-13T18:28:33.728Z,93817.25
2023-01-13T18:31:02.432Z,93816.25
2023-01-13T18:36:23.833Z,93816.06
2023-01-13T18:41:53.731Z,93817.09
2023-01-13T18:44:22.423Z,93817.88
2023-01-13T18:46:50.865Z,93817.50
2023-01-13T18:52:01.266Z,93807.19
2023-01-13T18:54:29.511Z,93814.69
2023-01-13T18:56:57.884Z,93816.28
2023-01-13T18:59:26.696Z,93814.88
2023-01-13T19:01:55.528Z,93813.47
2023-01-13T19:04:24.244Z,93820.25
2023-01-13T19:06:52.734Z,93811.09
2023-01-13T19:09:25.299Z,93818.81
2023-01-13T19:11:54.808Z,93808.44
2023-01-13T19:14:37.779Z,93818.56
2023-01-13T19:17:12.431Z,93817.56
2023-01-13T19:19:44.163Z,93815.13
2023-01-13T19:22:15.349Z,93814.47
2023-01-13T19:24:44.067Z,93812.25
2023-01-13T19:27:14.906Z,93819.16
2023-01-13T19:29:50.403Z,93819.34
2023-01-13T19:32:22.413Z,93820.94
2023-01-13T19:34:51.577Z,93815.53
2023-01-13T19:37:19.917Z,93812.66
2023-01-13T19:39:48.230Z,93814.47
2023-01-13T19:42:35.787Z,93803.34
2023-01-13T19:45:23.060Z,93809.19
2023-01-13T19:47:51.655Z,93808.38
2023-01-13T19:50:20.101Z,93805.59
2023-01-13T19:52:48.650Z,93807.31
2023-01-13T19:55:17.187Z,93809.72
2023-01-13T19:57:45.862Z,93805.75
2023-01-13T20:00:18.785Z,93802.72
2023-01-13T20:02:49.785Z,93798.00
2023-01-13T20:05:26.187Z,93808.81
2023-01-13T20:07:54.861Z,93798.25
2023-01-13T20:10:24.959Z,93796.84
2023-01-13T20:12:53.412Z,93798.03
2023-01-13T20:15:22.423Z,93805.09
2023-01-13T20:17:51.115Z,93806.31
2023-01-13T20:20:20.838Z,93798.34
2023-01-13T20:22:50.203Z,93794.47
2023-01-13T20:25:19.139Z,93798.06
2023-01-13T20:27:48.592Z,93798.31
2023-01-13T20:30:17.517Z,93791.19
2023-01-13T20:32:45.872Z,93783.03
2023-01-13T20:35:15.106Z,93787.09
2023-01-13T20:37:43.892Z,93794.19
2023-01-13T20:40:15.285Z,93796.22
2023-01-13T20:42:47.129Z,93784.25
2023-01-13T20:45:20.747Z,93795.59
2023-01-13T20:47:49.354Z,93788.25
2023-01-13T20:50:18.079Z,93793.97
2023-01-13T20:52:46.831Z,93794.78
2023-01-13T20:55:15.556Z,93801.72
2023-01-13T20:57:43.991Z,93793.00
2023-01-13T21:00:13.226Z,93789.53
2023-01-13T21:02:42.242Z,93795.19
2023-01-13T21:05:10.707Z,93788.28
2023-01-13T21:07:39.148Z,93781.84
2023-01-13T21:10:08.407Z,93776.44
2023-01-13T21:12:55.387Z,93779.00
2023-01-13T21:15:24.406Z,93781.03
2023-01-13T21:18:11.243Z,93776.72
2023-01-13T21:20:39.839Z,93771.63
2023-01-13T21:23:11.033Z,93774.50
2023-01-13T21:25:40.685Z,93771.50
2023-01-13T21:28:13.815Z,93784.28
2023-01-13T21:30:42.424Z,93777.97
2023-01-13T21:33:14.490Z,93787.28
2023-01-13T21:35:43.066Z,93789.38
2023-01-13T21:38:12.403Z,93773.56
2023-01-13T21:40:40.834Z,93788.78
2023-01-13T21:43:31.240Z,93786.56
2023-01-13T21:46:17.969Z,93788.28
2023-01-13T21:48:46.186Z,93793.09
2023-01-13T21:51:14.067Z,93792.50
2023-01-13T21:53:42.079Z,93796.53
2023-01-13T21:56:10.385Z,93799.78
2023-01-13T21:58:39.313Z,93795.69
2023-01-13T22:01:10.134Z,93799.53
2023-01-13T22:03:59.603Z,93793.41
2023-01-13T22:06:28.552Z,93797.25
2023-01-13T22:09:00.093Z,93796.25
2023-01-13T22:11:29.348Z,93794.06
2023-01-13T22:14:10.449Z,93789.06
2023-01-13T22:16:49.255Z,93792.28
2023-01-13T22:19:18.936Z,93794.00
2023-01-13T22:21:46.976Z,93794.47
2023-01-13T22:24:15.218Z,93790.34
2023-01-13T22:26:43.478Z,93786.47
2023-01-13T22:29:11.330Z,93796.81
2023-01-13T22:31:40.266Z,93803.50
2023-01-13T22:34:08.583Z,93802.47
2023-01-13T22:36:36.484Z,93780.88
2023-01-13T22:39:05.250Z,93783.97
2023-01-13T22:41:33.240Z,93776.31
2023-01-13T22:44:01.169Z,93757.56
2023-01-13T22:46:29.280Z,93775.38
2023-01-13T22:48:57.203Z,93779.09
2023-01-13T22:51:26.835Z,93786.38
2023-01-13T22:53:55.038Z,93779.03
2023-01-13T22:56:25.652Z,93778.50
2023-01-13T22:58:55.493Z,93777.91
2023-01-13T23:01:25.130Z,93780.31
2023-01-13T23:03:53.588Z,93781.06
2023-01-13T23:06:24.157Z,93769.09
2023-01-13T23:08:52.731Z,93770.72
2023-01-13T23:11:24.204Z,93763.03
2023-01-13T23:13:57.780Z,93770.94
2023-01-13T23:16:27.146Z,93771.94
2023-01-13T23:18:55.186Z,93766.47
2023-01-13T23:21:26.551Z,93763.59
2023-01-13T23:23:55.606Z,93769.00
2023-01-13T23:26:24.329Z,93769.41
2023-01-13T23:28:52.247Z,93748.31
2023-01-13T23:31:22.330Z,93761.09
2023-01-13T23:33:50.409Z,93754.81
2023-01-13T23:36:24.420Z,93756.78
2023-01-13T23:38:53.295Z,93753.31
2023-01-13T23:41:24.739Z,93759.41
2023-01-13T23:43:54.284Z,93760.44
2023-01-13T23:46:23.167Z,93754.28
2023-01-13T23:48:51.968Z,93761.00
2023-01-13T23:51:21.540Z,93759.56
2023-01-13T23:53:50.773Z,93737.28
2023-01-13T23:56:27.975Z,93764.22
2023-01-13T23:58:57.244Z,93758.72
